createdAt,value
2023-04-10T00:01:46.328Z,85.86
2023-04-10T00:04:12.882Z,85.54
2023-04-10T00:06:40.937Z,86.85
2023-04-10T00:09:08.138Z,86.10
2023-04-10T00:11:34.562Z,85.86
2023-04-10T00:14:01.114Z,85.48
2023-04-10T00:16:27.588Z,86.35
2023-04-10T00:18:54.041Z,86.40
2023-04-10T00:21:20.750Z,85.96
2023-04-10T00:23:47.149Z,86.67
2023-04-10T00:26:13.551Z,86.90
2023-04-10T00:28:41.540Z,87.18
2023-04-10T00:31:07.941Z,86.80
2023-04-10T00:33:34.340Z,87.38
2023-04-10T00:36:01.191Z,87.56
2023-04-10T00:38:28.714Z,86.67
2023-04-10T00:40:55.277Z,87.60
2023-04-10T00:43:22.050Z,87.62
2023-04-10T00:45:49.972Z,87.96
2023-04-10T00:48:17.793Z,87.43
2023-04-10T00:50:46.223Z,87.67
2023-04-10T00:53:12.615Z,87.51
2023-04-10T00:55:39.293Z,87.32
2023-04-10T00:58:05.774Z,87.66
2023-04-10T01:00:32.210Z,87.31
2023-04-10T01:03:01.321Z,87.21
2023-04-10T01:05:35.257Z,87.32
2023-04-10T01:08:36.518Z,87.79
2023-04-10T01:11:13.469Z,86.48
2023-04-10T01:13:49.898Z,86.61
2023-04-10T01:16:23.231Z,87.22
2023-04-10T01:19:18.813Z,86.70
2023-04-10T01:21:45.858Z,86.52
2023-04-10T01:24:31.506Z,87.08
2023-04-10T01:27:56.612Z,86.47
2023-04-10T01:30:23.228Z,86.12
2023-04-10T01:32:53.694Z,87.98
2023-04-10T01:35:21.368Z,87.94
2023-04-10T01:37:50.595Z,87.14
2023-04-10T01:40:20.984Z,86.25
2023-04-10T01:42:56.715Z,86.22
2023-04-10T01:45:29.891Z,86.83
2023-04-10T01:47:56.642Z,87.79
2023-04-10T01:50:24.472Z,87.48
2023-04-10T01:52:54.646Z,87.52
2023-04-10T01:55:27.511Z,87.04
2023-04-10T01:58:05.872Z,87.27
2023-04-10T02:00:42.980Z,87.67
2023-04-10T02:03:11.298Z,87.87
2023-04-10T02:06:02.413Z,87.74
2023-04-10T02:08:37.548Z,87.66
2023-04-10T02:11:17.579Z,87.84
2023-04-10T02:13:44.211Z,87.17
2023-04-10T02:16:14.340Z,86.96
2023-04-10T02:18:41.188Z,87.10
2023-04-10T02:21:08.257Z,86.83
2023-04-10T02:23:35.927Z,87.40
2023-04-10T02:26:09.188Z,88.70
2023-04-10T02:28:39.302Z,87.74
2023-04-10T02:31:07.508Z,88.09
2023-04-10T02:33:33.945Z,88.20
2023-04-10T02:36:01.341Z,88.21
2023-04-10T02:38:28.619Z,88.11
2023-04-10T02:40:55.326Z,88.44
2023-04-10T02:43:21.824Z,87.89
2023-04-10T02:45:48.242Z,87.53
2023-04-10T02:48:20.895Z,87.39
2023-04-10T02:50:57.681Z,87.46
2023-04-10T02:53:25.959Z,86.53
2023-04-10T02:55:56.280Z,86.77
2023-04-10T02:58:22.741Z,88.36
2023-04-10T03:00:52.157Z,87.45
2023-04-10T03:03:25.575Z,86.94
2023-04-10T03:05:54.903Z,86.53
2023-04-10T03:08:31.071Z,87.92
2023-04-10T03:10:57.460Z,87.42
2023-04-10T03:13:23.886Z,87.08
2023-04-10T03:15:50.378Z,87.90
2023-04-10T03:18:16.970Z,86.49
2023-04-10T03:20:45.417Z,87.78
2023-04-10T03:23:11.977Z,87.23
2023-04-10T03:25:38.533Z,86.68
2023-04-10T03:28:06.940Z,86.94
2023-04-10T03:30:35.272Z,87.79
2023-04-10T03:33:02.572Z,89.06
2023-04-10T03:35:29.444Z,90.08
2023-04-10T03:37:55.843Z,89.49
2023-04-10T03:40:22.524Z,88.88
2023-04-10T03:42:48.978Z,89.20
2023-04-10T03:45:15.566Z,91.60
2023-04-10T03:47:42.018Z,91.85
2023-04-10T03:50:10.547Z,92.68
2023-04-10T03:52:45.363Z,92.94
2023-04-10T03:55:19.061Z,92.78
2023-04-10T03:57:47.182Z,92.33
2023-04-10T04:00:15.675Z,91.80
2023-04-10T04:02:50.863Z,90.30
2023-04-10T04:05:36.423Z,90.94
2023-04-10T04:08:23.771Z,91.16
2023-04-10T04:11:08.719Z,91.84
2023-04-10T04:13:44.003Z,92.78
2023-04-10T04:16:24.041Z,91.64
2023-04-10T04:18:56.419Z,92.12
2023-04-10T04:21:31.451Z,92.24
2023-04-10T04:24:08.991Z,91.43
2023-04-10T04:26:53.862Z,91.35
2023-04-10T04:29:34.672Z,91.83
2023-04-10T04:32:30.544Z,91.44
2023-04-10T04:35:14.248Z,90.71
2023-04-10T04:38:06.549Z,91.72
2023-04-10T04:40:50.736Z,91.14
2023-04-10T04:43:41.141Z,90.59
2023-04-10T04:46:23.583Z,91.58
2023-04-10T04:48:58.859Z,91.85
2023-04-10T04:51:33.158Z,92.04
2023-04-10T04:54:05.057Z,91.65
2023-04-10T04:56:40.579Z,92.39
2023-04-10T04:59:16.098Z,91.31
2023-04-10T05:01:55.886Z,92.70
2023-04-10T05:04:57.955Z,90.53
2023-04-10T05:07:44.832Z,90.96
2023-04-10T05:10:38.949Z,90.59
2023-04-10T05:13:30.488Z,91.47
2023-04-10T05:16:15.698Z,92.06
2023-04-10T05:18:56.109Z,93.06
2023-04-10T05:21:51.629Z,97.46
2023-04-10T05:24:41.020Z,95.89
2023-04-10T05:27:13.705Z,95.80
2023-04-10T05:29:58.639Z,95.23
2023-04-10T05:32:37.004Z,97.41
2023-04-10T05:35:24.935Z,97.71
2023-04-10T05:38:11.689Z,98.48
2023-04-10T05:40:45.786Z,100.00
2023-04-10T05:43:32.225Z,100.00
2023-04-10T05:46:13.372Z,100.00
2023-04-10T05:48:56.634Z,100.00
2023-04-10T05:51:37.005Z,100.00
2023-04-10T05:54:18.019Z,100.00
2023-04-10T05:56:53.578Z,100.00
2023-04-10T05:59:38.784Z,100.00
2023-04-10T06:02:21.799Z,100.00
2023-04-10T06:04:48.960Z,100.00
2023-04-10T06:07:16.201Z,100.00
2023-04-10T06:09:42.627Z,100.00
2023-04-10T06:12:09.977Z,100.00
2023-04-10T06:14:38.545Z,100.00
2023-04-10T06:17:05.699Z,100.00
2023-04-10T06:19:32.275Z,100.00
2023-04-10T06:21:58.672Z,100.00
2023-04-10T06:24:25.337Z,99.98
2023-04-10T06:26:51.827Z,99.40
2023-04-10T06:29:18.254Z,98.70
2023-04-10T06:31:44.773Z,100.00
2023-04-10T06:34:11.881Z,100.00
2023-04-10T06:36:46.954Z,100.00
2023-04-10T06:39:13.653Z,100.00
2023-04-10T06:41:40.062Z,100.00
2023-04-10T06:44:16.046Z,100.00
2023-04-10T06:46:42.491Z,100.00
2023-04-10T06:49:08.926Z,100.00
2023-04-10T06:51:35.316Z,100.00
2023-04-10T06:54:01.720Z,100.00
2023-04-10T06:56:28.584Z,100.00
2023-04-10T06:58:55.189Z,100.00
2023-04-10T07:01:21.917Z,100.00
2023-04-10T07:03:48.447Z,100.00
2023-04-10T07:06:14.873Z,100.00
2023-04-10T07:08:41.280Z,100.00
2023-04-10T07:11:07.725Z,100.00
2023-04-10T07:13:35.608Z,100.00
2023-04-10T07:16:02.145Z,99.01
2023-04-10T07:18:28.610Z,96.25
2023-04-10T07:20:55.033Z,96.40
2023-04-10T07:23:22.525Z,95.77
2023-04-10T07:25:48.961Z,94.03
2023-04-10T07:28:15.375Z,92.41
2023-04-10T07:30:42.046Z,91.37
2023-04-10T07:33:08.635Z,89.15
2023-04-10T07:35:35.242Z,88.95
2023-04-10T07:38:01.782Z,88.98
2023-04-10T07:40:28.278Z,88.35
2023-04-10T07:42:54.691Z,86.69
2023-04-10T07:45:21.145Z,86.58
2023-04-10T07:47:47.690Z,84.75
2023-04-10T07:50:14.153Z,84.65
2023-04-10T07:52:40.556Z,83.36
2023-04-10T07:55:07.040Z,82.86
2023-04-10T07:57:33.455Z,82.21
2023-04-10T07:59:59.858Z,82.16
2023-04-10T08:02:26.512Z,81.31
2023-04-10T08:04:53.154Z,80.84
2023-04-10T08:07:21.618Z,80.24
2023-04-10T08:09:48.141Z,78.80
2023-04-10T08:12:14.523Z,79.16
2023-04-10T08:14:40.906Z,78.67
2023-04-10T08:17:14.312Z,78.68
2023-04-10T08:19:42.053Z,78.68
2023-04-10T08:22:08.661Z,77.84
2023-04-10T08:24:35.137Z,77.36
2023-04-10T08:27:01.654Z,76.37
2023-04-10T08:29:28.050Z,75.93
2023-04-10T08:31:55.584Z,75.43
2023-04-10T08:34:24.294Z,75.15
2023-04-10T08:36:50.690Z,75.09
2023-04-10T08:39:17.089Z,75.06
2023-04-10T08:41:43.769Z,74.64
2023-04-10T08:44:10.654Z,73.54
2023-04-10T08:46:43.253Z,72.27
2023-04-10T08:49:15.431Z,72.09
2023-04-10T08:51:47.948Z,71.16
2023-04-10T08:54:27.496Z,70.08
2023-04-10T08:56:55.952Z,71.25
2023-04-10T08:59:22.747Z,70.58
2023-04-10T09:01:49.307Z,70.65
2023-04-10T09:04:17.856Z,69.26
2023-04-10T09:06:44.421Z,68.79
2023-04-10T09:09:10.973Z,67.70
2023-04-10T09:11:56.002Z,65.57
2023-04-10T09:14:32.563Z,64.63
2023-04-10T09:17:12.938Z,63.72
2023-04-10T09:19:39.494Z,63.41
2023-04-10T09:22:06.056Z,63.15
2023-04-10T09:24:37.413Z,62.98
2023-04-10T09:27:04.349Z,65.00
2023-04-10T09:29:43.193Z,62.94
2023-04-10T09:32:10.132Z,63.57
2023-04-10T09:34:52.358Z,62.38
2023-04-10T09:37:20.756Z,61.29
2023-04-10T09:39:47.163Z,61.50
2023-04-10T09:42:14.791Z,61.69
2023-04-10T09:44:42.221Z,59.45
2023-04-10T09:47:14.745Z,58.87
2023-04-10T09:49:52.524Z,55.40
2023-04-10T09:52:20.450Z,57.41
2023-04-10T09:54:46.915Z,57.89
2023-04-10T09:57:21.427Z,55.06
2023-04-10T09:59:56.612Z,55.90
2023-04-10T10:02:25.756Z,55.07
2023-04-10T10:04:52.945Z,52.61
2023-04-10T10:07:21.145Z,53.73
2023-04-10T10:09:49.156Z,54.12
2023-04-10T10:12:37.946Z,53.40
2023-04-10T10:15:16.423Z,52.97
2023-04-10T10:17:49.383Z,53.96
2023-04-10T10:20:18.239Z,52.44
2023-04-10T10:22:46.408Z,53.05
2023-04-10T10:25:13.152Z,53.38
2023-04-10T10:27:41.554Z,53.36
2023-04-10T10:30:25.408Z,53.42
2023-04-10T10:32:56.076Z,53.01
2023-04-10T10:35:25.157Z,53.14
2023-04-10T10:37:52.938Z,53.27
2023-04-10T10:40:37.625Z,53.02
2023-04-10T10:43:14.808Z,53.81
2023-04-10T10:45:52.364Z,53.50
2023-04-10T10:48:18.857Z,54.43
2023-04-10T10:50:57.854Z,51.60
2023-04-10T10:53:36.388Z,53.05
2023-04-10T10:56:22.487Z,52.04
2023-04-10T10:58:50.777Z,53.08
2023-04-10T11:01:18.208Z,52.29
2023-04-10T11:03:45.482Z,52.09
2023-04-10T11:06:15.386Z,51.27
2023-04-10T11:08:46.567Z,51.15
2023-04-10T11:11:20.056Z,50.15
2023-04-10T11:13:52.403Z,50.37
2023-04-10T11:16:20.384Z,50.29
2023-04-10T11:18:51.208Z,50.27
2023-04-10T11:21:23.447Z,49.64
2023-04-10T11:23:49.788Z,50.93
2023-04-10T11:26:43.723Z,50.46
2023-04-10T11:29:16.124Z,50.29
2023-04-10T11:31:44.545Z,50.90
2023-04-10T11:34:11.805Z,49.92
2023-04-10T11:36:40.718Z,50.37
2023-04-10T11:39:15.956Z,50.32
2023-04-10T11:41:44.269Z,50.01
2023-04-10T11:44:12.873Z,49.02
2023-04-10T11:46:41.307Z,49.74
2023-04-10T11:49:09.799Z,49.72
2023-04-10T11:51:37.741Z,49.48
2023-04-10T11:54:05.450Z,50.02
2023-04-10T11:56:31.847Z,49.21
2023-04-10T11:58:58.296Z,49.42
2023-04-10T12:01:24.954Z,49.41
2023-04-10T12:03:51.693Z,50.25
2023-04-10T12:06:19.598Z,50.71
2023-04-10T12:08:49.287Z,50.88
2023-04-10T12:11:18.728Z,51.80
2023-04-10T12:13:45.220Z,52.33
2023-04-10T12:16:12.426Z,52.31
2023-04-10T12:18:39.662Z,51.76
2023-04-10T12:21:08.538Z,50.83
2023-04-10T12:23:38.337Z,51.02
2023-04-10T12:26:16.558Z,50.90
2023-04-10T12:28:52.503Z,51.56
2023-04-10T12:31:28.093Z,51.25
2023-04-10T12:33:57.855Z,49.85
2023-04-10T12:36:29.439Z,49.35
2023-04-10T12:39:00.366Z,49.44
2023-04-10T12:41:28.379Z,50.04
2023-04-10T12:44:10.989Z,49.81
2023-04-10T12:46:38.532Z,49.14
2023-04-10T12:49:13.143Z,48.67
2023-04-10T12:51:49.278Z,48.35
2023-04-10T12:54:35.349Z,48.23
2023-04-10T12:57:03.843Z,49.02
2023-04-10T12:59:31.258Z,49.09
2023-04-10T13:02:13.538Z,49.18
2023-04-10T13:04:42.613Z,49.33
2023-04-10T13:07:09.095Z,49.67
2023-04-10T13:09:35.491Z,49.56
2023-04-10T13:12:03.860Z,49.18
2023-04-10T13:14:30.481Z,49.13
2023-04-10T13:16:59.937Z,49.44
2023-04-10T13:19:27.048Z,49.26
2023-04-10T13:21:56.339Z,49.61
2023-04-10T13:24:22.734Z,50.17
2023-04-10T13:26:49.155Z,50.02
2023-04-10T13:29:15.670Z,50.06
2023-04-10T13:31:42.129Z,49.39
2023-04-10T13:34:21.168Z,49.93
2023-04-10T13:36:48.557Z,50.28
2023-04-10T13:39:14.960Z,50.59
2023-04-10T13:41:41.364Z,50.50
2023-04-10T13:44:07.754Z,49.41
2023-04-10T13:46:34.218Z,49.07
2023-04-10T13:49:00.782Z,48.98
2023-04-10T13:51:27.849Z,48.30
2023-04-10T13:53:54.310Z,48.41
2023-04-10T13:56:21.068Z,48.83
2023-04-10T13:58:49.143Z,48.20
2023-04-10T14:01:15.653Z,47.78
2023-04-10T14:03:42.270Z,46.51
2023-04-10T14:06:11.736Z,46.25
2023-04-10T14:08:38.196Z,46.35
2023-04-10T14:11:04.663Z,46.90
2023-04-10T14:13:31.076Z,46.02
2023-04-10T14:15:57.532Z,46.02
2023-04-10T14:18:23.978Z,45.94
2023-04-10T14:20:50.375Z,45.13
2023-04-10T14:23:19.608Z,44.59
2023-04-10T14:25:46.768Z,45.57
2023-04-10T14:28:19.454Z,45.51
2023-04-10T14:30:48.277Z,45.12
2023-04-10T14:33:15.181Z,45.19
2023-04-10T14:35:41.699Z,45.53
2023-04-10T14:38:08.166Z,45.76
2023-04-10T14:40:34.654Z,45.51
2023-04-10T14:43:01.089Z,46.15
2023-04-10T14:45:27.818Z,45.85
2023-04-10T14:47:54.489Z,46.35
2023-04-10T14:50:21.034Z,46.62
2023-04-10T14:52:47.461Z,46.49
2023-04-10T14:55:13.861Z,46.46
2023-04-10T14:57:40.422Z,46.08
2023-04-10T15:00:07.413Z,46.04
2023-04-10T15:02:33.939Z,45.81
2023-04-10T15:05:00.413Z,46.78
2023-04-10T15:07:28.309Z,47.20
2023-04-10T15:09:58.530Z,47.58
2023-04-10T15:12:25.244Z,47.43
2023-04-10T15:14:52.058Z,46.30
2023-04-10T15:17:22.277Z,46.15
2023-04-10T15:19:48.987Z,46.59
2023-04-10T15:22:15.851Z,47.30
2023-04-10T15:24:50.009Z,48.06
2023-04-10T15:27:19.107Z,47.72
2023-04-10T15:29:45.516Z,47.45
2023-04-10T15:32:11.918Z,47.76
2023-04-10T15:34:38.361Z,47.19
2023-04-10T15:37:04.774Z,47.87
2023-04-10T15:39:31.170Z,47.65
2023-04-10T15:42:00.048Z,47.73
2023-04-10T15:44:26.770Z,47.31
2023-04-10T15:49:29.727Z,47.58
2023-04-10T15:52:00.730Z,47.70
2023-04-10T15:54:27.132Z,47.48
2023-04-10T15:56:53.529Z,47.28
2023-04-10T15:59:19.977Z,47.02
2023-04-10T16:01:46.473Z,46.75
2023-04-10T16:04:13.075Z,46.83
2023-04-10T16:06:39.607Z,46.94
2023-04-10T16:09:18.361Z,46.78
2023-04-10T16:11:51.000Z,47.01
2023-04-10T16:14:18.915Z,47.65
2023-04-10T16:16:45.667Z,47.52
2023-04-10T16:19:12.102Z,47.85
2023-04-10T16:21:38.508Z,47.26
2023-04-10T16:24:05.214Z,47.71
2023-04-10T16:26:31.617Z,47.45
2023-04-10T16:28:58.050Z,48.18
2023-04-10T16:31:24.711Z,47.55
2023-04-10T16:33:51.163Z,47.92
2023-04-10T16:36:17.568Z,48.34
2023-04-10T16:38:44.538Z,47.84
2023-04-10T16:41:12.354Z,48.07
2023-04-10T16:43:38.987Z,48.01
2023-04-10T16:46:05.812Z,48.24
2023-04-10T16:48:51.941Z,48.21
2023-04-10T16:51:18.571Z,48.18
2023-04-10T16:53:45.075Z,48.55
2023-04-10T16:56:11.521Z,48.91
2023-04-10T16:58:38.167Z,49.06
2023-04-10T17:01:25.192Z,49.36
2023-04-10T17:03:52.034Z,49.83
2023-04-10T17:06:18.468Z,49.79
2023-04-10T17:08:45.552Z,50.27
2023-04-10T17:11:15.878Z,50.10
2023-04-10T17:13:42.366Z,50.18
2023-04-10T17:16:09.539Z,50.24
2023-04-10T17:18:36.055Z,50.79
2023-04-10T17:21:02.474Z,51.07
2023-04-10T17:23:29.447Z,50.90
2023-04-10T17:25:55.848Z,51.16
2023-04-10T17:28:22.308Z,50.99
2023-04-10T17:30:48.723Z,51.67
2023-04-10T17:33:15.326Z,51.56
2023-04-10T17:35:42.067Z,51.36
2023-04-10T17:38:08.549Z,51.52
2023-04-10T17:40:35.117Z,51.50
2023-04-10T17:43:01.599Z,51.75
2023-04-10T17:45:28.040Z,51.69
2023-04-10T17:47:54.542Z,52.16
2023-04-10T17:50:21.047Z,52.19
2023-04-10T17:52:47.447Z,51.89
2023-04-10T17:55:18.335Z,52.04
2023-04-10T17:57:47.033Z,52.51
2023-04-10T18:00:15.570Z,52.93
2023-04-10T18:02:42.975Z,52.82
2023-04-10T18:05:09.619Z,53.33
2023-04-10T18:07:37.425Z,53.38
2023-04-10T18:10:05.120Z,53.19
2023-04-10T18:12:59.277Z,53.55
2023-04-10T18:15:47.401Z,53.15
2023-04-10T18:22:06.904Z,53.86
2023-04-10T18:24:59.501Z,54.11
2023-04-10T18:28:13.959Z,53.95
2023-04-10T18:30:41.362Z,54.24
2023-04-10T18:33:10.878Z,54.89
2023-04-10T18:35:38.360Z,55.25
2023-04-10T18:38:04.805Z,55.17
2023-04-10T18:40:31.240Z,55.52
2023-04-10T18:42:59.721Z,55.60
2023-04-10T18:45:29.276Z,55.78
2023-04-10T18:47:55.770Z,56.04
2023-04-10T18:50:22.285Z,56.16
2023-04-10T18:52:48.805Z,56.17
2023-04-10T18:55:15.934Z,55.95
2023-04-10T18:57:42.365Z,56.37
2023-04-10T19:00:11.351Z,56.11
2023-04-10T19:02:37.862Z,56.36
2023-04-10T19:05:04.598Z,56.34
2023-04-10T19:07:32.284Z,56.46
2023-04-10T19:09:58.761Z,56.36
2023-04-10T19:12:25.185Z,56.07
2023-04-10T19:14:51.619Z,56.10
2023-04-10T19:17:19.596Z,55.77
2023-04-10T19:19:46.140Z,55.72
2023-04-10T19:22:13.326Z,55.29
2023-04-10T19:24:39.723Z,54.89
2023-04-10T19:27:06.380Z,54.45
2023-04-10T19:29:32.785Z,54.48
2023-04-10T19:31:59.197Z,54.15
2023-04-10T19:34:25.778Z,53.73
2023-04-10T19:36:52.174Z,54.01
2023-04-10T19:39:18.570Z,53.95
2023-04-10T19:41:44.967Z,53.57
2023-04-10T19:44:11.378Z,53.55
2023-04-10T19:46:37.863Z,53.74
2023-04-10T19:49:04.348Z,53.39
2023-04-10T19:51:32.250Z,53.44
2023-04-10T19:53:59.052Z,53.35
2023-04-10T19:56:27.648Z,53.02
2023-04-10T19:58:54.141Z,53.00
2023-04-10T20:01:26.685Z,52.38
2023-04-10T20:03:53.307Z,52.49
2023-04-10T20:06:21.406Z,52.49
2023-04-10T20:08:47.799Z,52.44
2023-04-10T20:11:14.196Z,52.38
2023-04-10T20:13:41.332Z,51.81
2023-04-10T20:16:08.098Z,52.01
2023-04-10T20:18:34.725Z,51.87
2023-04-10T20:21:01.223Z,51.72
2023-04-10T20:23:27.665Z,52.40
2023-04-10T20:25:54.098Z,52.04
2023-04-10T20:28:20.764Z,51.91
2023-04-10T20:30:47.202Z,52.25
2023-04-10T20:33:13.596Z,52.38
2023-04-10T20:35:40.082Z,52.17
2023-04-10T20:38:06.558Z,52.07
2023-04-10T20:40:33.204Z,51.51
2023-04-10T20:42:59.582Z,51.91
2023-04-10T20:45:25.992Z,50.92
2023-04-10T20:47:52.425Z,51.26
2023-04-10T20:50:18.823Z,50.77
2023-04-10T20:52:45.367Z,50.40
2023-04-10T20:55:11.875Z,50.45
2023-04-10T20:57:38.327Z,50.97
2023-04-10T21:00:05.353Z,50.74
2023-04-10T21:02:31.873Z,50.26
2023-04-10T21:04:59.572Z,50.25
2023-04-10T21:07:25.996Z,50.66
2023-04-10T21:09:52.422Z,50.26
2023-04-10T21:12:19.742Z,50.32
2023-04-10T21:14:46.203Z,50.82
2023-04-10T21:17:12.662Z,50.68
2023-04-10T21:19:39.098Z,50.66
2023-04-10T21:22:05.620Z,50.58
2023-04-10T21:24:32.065Z,50.71
2023-04-10T21:26:58.502Z,50.83
2023-04-10T21:29:24.950Z,50.86
2023-04-10T21:31:51.366Z,51.05
2023-04-10T21:34:17.808Z,51.16
2023-04-10T21:36:44.207Z,51.38
2023-04-10T21:39:10.786Z,51.60
2023-04-10T21:41:38.281Z,51.71
2023-04-10T21:44:05.695Z,51.84
2023-04-10T21:46:32.347Z,51.80
2023-04-10T21:48:58.885Z,52.26
2023-04-10T21:51:26.956Z,52.31
2023-04-10T21:53:53.510Z,52.67
2023-04-10T21:56:19.988Z,52.50
2023-04-10T21:58:46.437Z,52.43
2023-04-10T22:01:13.013Z,52.16
2023-04-10T22:03:39.645Z,52.38
2023-04-10T22:06:06.327Z,52.62
2023-04-10T22:08:32.754Z,52.33
2023-04-10T22:10:59.178Z,52.49
2023-04-10T22:13:30.798Z,52.70
2023-04-10T22:15:57.683Z,52.38
2023-04-10T22:18:24.097Z,52.56
2023-04-10T22:20:50.806Z,52.52
2023-04-10T22:23:17.325Z,52.77
2023-04-10T22:25:43.735Z,52.90
2023-04-10T22:28:10.236Z,52.80
2023-04-10T22:30:36.674Z,52.87
2023-04-10T22:33:03.169Z,53.07
2023-04-10T22:35:29.714Z,52.99
2023-04-10T22:37:56.959Z,53.04
2023-04-10T22:40:23.504Z,53.02
2023-04-10T22:42:50.635Z,53.45
2023-04-10T22:45:17.121Z,53.64
2023-04-10T22:47:43.535Z,53.09
2023-04-10T22:50:10.123Z,53.34
2023-04-10T22:52:36.540Z,53.45
2023-04-10T22:55:06.710Z,53.50
2023-04-10T22:57:33.678Z,54.04
2023-04-10T23:00:00.725Z,54.19
2023-04-10T23:02:27.558Z,53.97
2023-04-10T23:04:54.270Z,54.33
2023-04-10T23:07:20.714Z,54.52
2023-04-10T23:09:47.122Z,54.58
2023-04-10T23:12:13.551Z,54.61
2023-04-10T23:14:39.964Z,54.54
2023-04-10T23:17:06.400Z,54.57
2023-04-10T23:19:32.807Z,54.71
2023-04-10T23:21:59.200Z,54.60
2023-04-10T23:24:25.604Z,55.27
2023-04-10T23:26:52.012Z,55.24
2023-04-10T23:29:18.416Z,55.20
2023-04-10T23:31:44.862Z,55.19
2023-04-10T23:34:11.313Z,55.15
2023-04-10T23:36:37.718Z,55.17
2023-04-10T23:39:04.169Z,55.65
2023-04-10T23:41:30.645Z,55.50
2023-04-10T23:43:57.064Z,55.33
2023-04-10T23:46:23.494Z,55.34
2023-04-10T23:48:49.992Z,55.31
2023-04-10T23:51:16.389Z,55.37
2023-04-10T23:53:43.027Z,55.46
2023-04-10T23:56:09.764Z,55.52
2023-04-10T23:58:36.186Z,55.51
